sensor_id;sensor_type;location;lat;lon;timestamp;P1;durP1;ratioP1;P2;durP2;ratioP2
15142;SDS011;7672;50.834;6.286;2022-08-11T00:01:16;6.47;;;3.38;;
15142;SDS011;7672;50.834;6.286;2022-08-11T00:03:49;6.88;;;3.70;;
15142;SDS011;7672;50.834;6.286;2022-08-11T00:09:03;4.53;;;3.72;;
15142;SDS011;7672;50.834;6.286;2022-08-11T00:14:16;7.37;;;4.20;;
15142;SDS011;7672;50.834;6.286;2022-08-11T00:16:55;7.27;;;4.07;;
15142;SDS011;7672;50.834;6.286;2022-08-11T00:19:28;8.15;;;3.58;;
15142;SDS011;7672;50.834;6.286;2022-08-11T00:22:22;5.63;;;3.70;;
15142;SDS011;7672;50.834;6.286;2022-08-11T00:24:50;4.90;;;3.63;;
15142;SDS011;7672;50.834;6.286;2022-08-11T00:27:33;7.47;;;4.77;;
15142;SDS011;7672;50.834;6.286;2022-08-11T00:30:02;6.00;;;4.57;;
15142;SDS011;7672;50.834;6.286;2022-08-11T00:32:32;9.73;;;4.90;;
15142;SDS011;7672;50.834;6.286;2022-08-11T00:35:00;5.50;;;4.47;;
15142;SDS011;7672;50.834;6.286;2022-08-11T00:37:50;5.50;;;4.43;;
15142;SDS011;7672;50.834;6.286;2022-08-11T00:40:32;7.00;;;4.07;;
15142;SDS011;7672;50.834;6.286;2022-08-11T00:43:15;5.07;;;4.40;;
15142;SDS011;7672;50.834;6.286;2022-08-11T00:46:08;5.00;;;3.90;;
15142;SDS011;7672;50.834;6.286;2022-08-11T00:58:47;5.17;;;4.07;;
15142;SDS011;7672;50.834;6.286;2022-08-11T01:08:29;5.90;;;3.90;;
15142;SDS011;7672;50.834;6.286;2022-08-11T01:14:39;4.47;;;4.07;;
15142;SDS011;7672;50.834;6.286;2022-08-11T01:17:47;6.80;;;4.40;;
15142;SDS011;7672;50.834;6.286;2022-08-11T01:27:12;6.43;;;4.50;;
15142;SDS011;7672;50.834;6.286;2022-08-11T01:33:07;5.00;;;4.00;;
15142;SDS011;7672;50.834;6.286;2022-08-11T01:42:21;7.87;;;4.47;;
15142;SDS011;7672;50.834;6.286;2022-08-11T01:52:24;5.10;;;4.60;;
15142;SDS011;7672;50.834;6.286;2022-08-11T01:55:16;6.47;;;3.93;;
15142;SDS011;7672;50.834;6.286;2022-08-11T01:58:59;6.67;;;3.80;;
15142;SDS011;7672;50.834;6.286;2022-08-11T02:01:12;5.00;;;4.07;;
15142;SDS011;7672;50.834;6.286;2022-08-11T02:04:30;4.77;;;3.37;;
15142;SDS011;7672;50.834;6.286;2022-08-11T02:07:16;6.13;;;3.80;;
15142;SDS011;7672;50.834;6.286;2022-08-11T02:16:23;3.63;;;3.33;;
15142;SDS011;7672;50.834;6.286;2022-08-11T02:19:23;4.10;;;3.80;;
15142;SDS011;7672;50.834;6.286;2022-08-11T02:22:30;4.00;;;3.60;;
15142;SDS011;7672;50.834;6.286;2022-08-11T02:25:37;4.43;;;3.60;;
15142;SDS011;7672;50.834;6.286;2022-08-11T02:28:34;5.33;;;3.57;;
15142;SDS011;7672;50.834;6.286;2022-08-11T02:32:04;4.23;;;3.83;;
15142;SDS011;7672;50.834;6.286;2022-08-11T02:34:45;4.20;;;3.50;;
15142;SDS011;7672;50.834;6.286;2022-08-11T02:40:03;5.50;;;3.63;;
15142;SDS011;7672;50.834;6.286;2022-08-11T02:46:23;4.90;;;3.97;;
15142;SDS011;7672;50.834;6.286;2022-08-11T02:58:13;4.10;;;3.80;;
15142;SDS011;7672;50.834;6.286;2022-08-11T03:00:54;6.07;;;4.07;;
15142;SDS011;7672;50.834;6.286;2022-08-11T03:03:47;4.23;;;3.93;;
15142;SDS011;7672;50.834;6.286;2022-08-11T03:06:48;4.30;;;3.90;;
15142;SDS011;7672;50.834;6.286;2022-08-11T03:09:45;5.90;;;4.07;;
15142;SDS011;7672;50.834;6.286;2022-08-11T03:19:20;5.00;;;4.37;;
15142;SDS011;7672;50.834;6.286;2022-08-11T03:22:12;4.47;;;4.07;;
15142;SDS011;7672;50.834;6.286;2022-08-11T03:25:00;7.40;;;4.67;;
15142;SDS011;7672;50.834;6.286;2022-08-11T03:34:07;4.50;;;4.17;;
15142;SDS011;7672;50.834;6.286;2022-08-11T03:46:26;4.23;;;3.83;;
15142;SDS011;7672;50.834;6.286;2022-08-11T03:55:22;8.33;;;4.77;;
15142;SDS011;7672;50.834;6.286;2022-08-11T04:23:52;7.23;;;4.50;;
15142;SDS011;7672;50.834;6.286;2022-08-11T04:27:44;12.43;;;4.60;;
15142;SDS011;7672;50.834;6.286;2022-08-11T04:33:01;6.30;;;4.77;;
15142;SDS011;7672;50.834;6.286;2022-08-11T04:45:52;30.73;;;6.50;;
15142;SDS011;7672;50.834;6.286;2022-08-11T04:55:34;55.90;;;8.47;;
15142;SDS011;7672;50.834;6.286;2022-08-11T05:05:28;47.07;;;7.17;;
15142;SDS011;7672;50.834;6.286;2022-08-11T05:17:14;7.93;;;5.37;;
15142;SDS011;7672;50.834;6.286;2022-08-11T05:20:16;8.97;;;4.87;;
15142;SDS011;7672;50.834;6.286;2022-08-11T05:23:03;7.90;;;5.07;;
15142;SDS011;7672;50.834;6.286;2022-08-11T05:25:53;4.63;;;4.23;;
15142;SDS011;7672;50.834;6.286;2022-08-11T05:29:04;9.07;;;4.60;;
15142;SDS011;7672;50.834;6.286;2022-08-11T05:32:14;10.30;;;4.30;;
15142;SDS011;7672;50.834;6.286;2022-08-11T05:35:03;10.43;;;4.27;;
15142;SDS011;7672;50.834;6.286;2022-08-11T05:37:33;5.65;;;4.05;;
15142;SDS011;7672;50.834;6.286;2022-08-11T05:40:27;5.67;;;4.30;;
15142;SDS011;7672;50.834;6.286;2022-08-11T05:43:18;6.00;;;4.75;;
15142;SDS011;7672;50.834;6.286;2022-08-11T05:46:26;8.90;;;4.10;;
15142;SDS011;7672;50.834;6.286;2022-08-11T05:49:13;7.20;;;4.28;;
15142;SDS011;7672;50.834;6.286;2022-08-11T05:51:59;4.97;;;4.18;;
15142;SDS011;7672;50.834;6.286;2022-08-11T05:55:00;6.30;;;3.90;;
15142;SDS011;7672;50.834;6.286;2022-08-11T05:57:54;5.15;;;3.53;;
15142;SDS011;7672;50.834;6.286;2022-08-11T06:00:27;5.78;;;3.78;;
15142;SDS011;7672;50.834;6.286;2022-08-11T06:02:56;5.32;;;3.28;;
15142;SDS011;7672;50.834;6.286;2022-08-11T06:05:32;7.20;;;3.40;;
15142;SDS011;7672;50.834;6.286;2022-08-11T06:08:08;4.30;;;3.65;;
15142;SDS011;7672;50.834;6.286;2022-08-11T06:10:40;3.58;;;3.17;;
15142;SDS011;7672;50.834;6.286;2022-08-11T06:13:09;3.67;;;3.38;;
15142;SDS011;7672;50.834;6.286;2022-08-11T06:15:46;3.67;;;3.38;;
15142;SDS011;7672;50.834;6.286;2022-08-11T06:18:31;6.43;;;3.35;;
15142;SDS011;7672;50.834;6.286;2022-08-11T06:21:00;4.05;;;3.30;;
15142;SDS011;7672;50.834;6.286;2022-08-11T06:23:33;4.38;;;3.97;;
15142;SDS011;7672;50.834;6.286;2022-08-11T06:26:05;4.03;;;3.17;;
15142;SDS011;7672;50.834;6.286;2022-08-11T06:28:38;4.30;;;3.30;;
15142;SDS011;7672;50.834;6.286;2022-08-11T06:31:18;3.90;;;3.60;;
15142;SDS011;7672;50.834;6.286;2022-08-11T06:36:34;7.20;;;3.42;;
15142;SDS011;7672;50.834;6.286;2022-08-11T06:48:02;8.73;;;3.58;;
15142;SDS011;7672;50.834;6.286;2022-08-11T06:50:33;5.53;;;3.83;;
15142;SDS011;7672;50.834;6.286;2022-08-11T06:53:18;3.72;;;3.42;;
15142;SDS011;7672;50.834;6.286;2022-08-11T06:55:47;7.80;;;3.95;;
15142;SDS011;7672;50.834;6.286;2022-08-11T06:58:35;9.30;;;4.90;;
15142;SDS011;7672;50.834;6.286;2022-08-11T07:01:31;6.03;;;4.60;;
15142;SDS011;7672;50.834;6.286;2022-08-11T07:04:18;8.60;;;4.20;;
15142;SDS011;7672;50.834;6.286;2022-08-11T07:07:00;5.20;;;4.20;;
15142;SDS011;7672;50.834;6.286;2022-08-11T07:13:46;4.60;;;4.10;;
15142;SDS011;7672;50.834;6.286;2022-08-11T07:16:37;5.75;;;4.40;;
15142;SDS011;7672;50.834;6.286;2022-08-11T07:19:10;4.68;;;4.38;;
15142;SDS011;7672;50.834;6.286;2022-08-11T07:22:01;5.53;;;4.30;;
15142;SDS011;7672;50.834;6.286;2022-08-11T07:27:42;4.72;;;4.28;;
15142;SDS011;7672;50.834;6.286;2022-08-11T07:30:33;4.93;;;4.35;;
15142;SDS011;7672;50.834;6.286;2022-08-11T07:33:06;4.75;;;4.45;;
15142;SDS011;7672;50.834;6.286;2022-08-11T07:35:56;5.32;;;4.65;;
15142;SDS011;7672;50.834;6.286;2022-08-11T07:38:31;5.47;;;4.97;;
15142;SDS011;7672;50.834;6.286;2022-08-11T07:41:13;5.00;;;4.60;;
15142;SDS011;7672;50.834;6.286;2022-08-11T07:43:44;7.38;;;4.57;;
15142;SDS011;7672;50.834;6.286;2022-08-11T07:46:17;7.00;;;4.90;;
15142;SDS011;7672;50.834;6.286;2022-08-11T07:49:04;6.95;;;4.65;;
15142;SDS011;7672;50.834;6.286;2022-08-11T07:51:53;5.78;;;4.40;;
15142;SDS011;7672;50.834;6.286;2022-08-11T07:54:46;6.35;;;4.85;;
15142;SDS011;7672;50.834;6.286;2022-08-11T07:57:16;4.88;;;4.47;;
15142;SDS011;7672;50.834;6.286;2022-08-11T08:00:24;5.18;;;4.00;;
15142;SDS011;7672;50.834;6.286;2022-08-11T08:03:16;6.50;;;4.10;;
15142;SDS011;7672;50.834;6.286;2022-08-11T08:06:19;4.80;;;4.30;;
15142;SDS011;7672;50.834;6.286;2022-08-11T08:09:06;4.65;;;4.25;;
15142;SDS011;7672;50.834;6.286;2022-08-11T08:11:53;5.28;;;4.75;;
15142;SDS011;7672;50.834;6.286;2022-08-11T08:14:40;5.35;;;4.85;;
15142;SDS011;7672;50.834;6.286;2022-08-11T08:17:26;8.45;;;4.30;;
15142;SDS011;7672;50.834;6.286;2022-08-11T08:23:15;4.68;;;4.20;;
15142;SDS011;7672;50.834;6.286;2022-08-11T08:26:01;8.48;;;4.50;;
15142;SDS011;7672;50.834;6.286;2022-08-11T08:28:52;7.93;;;4.18;;
15142;SDS011;7672;50.834;6.286;2022-08-11T08:31:42;4.18;;;3.88;;
15142;SDS011;7672;50.834;6.286;2022-08-11T08:34:11;6.60;;;4.20;;
15142;SDS011;7672;50.834;6.286;2022-08-11T08:36:43;4.70;;;4.30;;
15142;SDS011;7672;50.834;6.286;2022-08-11T08:39:13;4.93;;;4.53;;
15142;SDS011;7672;50.834;6.286;2022-08-11T08:41:41;5.95;;;4.00;;
15142;SDS011;7672;50.834;6.286;2022-08-11T08:44:11;4.03;;;3.70;;
15142;SDS011;7672;50.834;6.286;2022-08-11T08:47:00;4.75;;;4.18;;
15142;SDS011;7672;50.834;6.286;2022-08-11T08:49:33;5.40;;;4.38;;
15142;SDS011;7672;50.834;6.286;2022-08-11T08:52:11;4.28;;;3.92;;
15142;SDS011;7672;50.834;6.286;2022-08-11T08:55:04;4.95;;;4.25;;
15142;SDS011;7672;50.834;6.286;2022-08-11T08:57:35;4.45;;;4.00;;
15142;SDS011;7672;50.834;6.286;2022-08-11T09:00:06;4.88;;;4.07;;
15142;SDS011;7672;50.834;6.286;2022-08-11T09:02:40;5.47;;;3.83;;
15142;SDS011;7672;50.834;6.286;2022-08-11T09:05:10;4.13;;;3.83;;
15142;SDS011;7672;50.834;6.286;2022-08-11T09:07:38;4.72;;;4.32;;
15142;SDS011;7672;50.834;6.286;2022-08-11T09:10:07;5.10;;;3.70;;
15142;SDS011;7672;50.834;6.286;2022-08-11T09:12:37;4.03;;;3.72;;
15142;SDS011;7672;50.834;6.286;2022-08-11T09:15:08;7.35;;;4.10;;
15142;SDS011;7672;50.834;6.286;2022-08-11T09:17:40;4.53;;;4.05;;
15142;SDS011;7672;50.834;6.286;2022-08-11T09:20:32;4.10;;;3.78;;
15142;SDS011;7672;50.834;6.286;2022-08-11T09:23:03;3.90;;;3.55;;
15142;SDS011;7672;50.834;6.286;2022-08-11T09:26:13;4.10;;;3.72;;
15142;SDS011;7672;50.834;6.286;2022-08-11T09:29:07;3.75;;;3.45;;
15142;SDS011;7672;50.834;6.286;2022-08-11T09:31:36;5.18;;;3.67;;
15142;SDS011;7672;50.834;6.286;2022-08-11T09:34:06;4.70;;;3.60;;
15142;SDS011;7672;50.834;6.286;2022-08-11T09:36:37;3.10;;;2.90;;
15142;SDS011;7672;50.834;6.286;2022-08-11T09:39:27;3.75;;;3.45;;
15142;SDS011;7672;50.834;6.286;2022-08-11T09:42:16;3.60;;;3.30;;
15142;SDS011;7672;50.834;6.286;2022-08-11T09:44:49;4.40;;;3.30;;
15142;SDS011;7672;50.834;6.286;2022-08-11T09:47:23;5.50;;;3.22;;
15142;SDS011;7672;50.834;6.286;2022-08-11T09:49:56;5.47;;;3.38;;
15142;SDS011;7672;50.834;6.286;2022-08-11T09:52:36;6.22;;;3.50;;
15142;SDS011;7672;50.834;6.286;2022-08-11T09:55:26;3.85;;;3.45;;
15142;SDS011;7672;50.834;6.286;2022-08-11T09:57:53;3.65;;;3.33;;
15142;SDS011;7672;50.834;6.286;2022-08-11T10:00:58;3.80;;;3.33;;
15142;SDS011;7672;50.834;6.286;2022-08-11T10:03:28;3.92;;;3.13;;
15142;SDS011;7672;50.834;6.286;2022-08-11T10:06:05;4.82;;;3.20;;
15142;SDS011;7672;50.834;6.286;2022-08-11T10:09:14;3.97;;;3.40;;
15142;SDS011;7672;50.834;6.286;2022-08-11T10:11:49;3.95;;;3.58;;
15142;SDS011;7672;50.834;6.286;2022-08-11T10:14:23;3.72;;;3.42;;
15142;SDS011;7672;50.834;6.286;2022-08-11T10:17:13;4.80;;;3.40;;
15142;SDS011;7672;50.834;6.286;2022-08-11T10:19:46;4.38;;;3.95;;
15142;SDS011;7672;50.834;6.286;2022-08-11T10:22:31;4.45;;;3.42;;
15142;SDS011;7672;50.834;6.286;2022-08-11T10:25:19;4.97;;;3.47;;
15142;SDS011;7672;50.834;6.286;2022-08-11T10:28:06;5.25;;;3.60;;
15142;SDS011;7672;50.834;6.286;2022-08-11T10:30:55;3.58;;;3.28;;
15142;SDS011;7672;50.834;6.286;2022-08-11T10:33:43;3.50;;;3.20;;
15142;SDS011;7672;50.834;6.286;2022-08-11T10:36:33;4.07;;;3.25;;
15142;SDS011;7672;50.834;6.286;2022-08-11T10:39:19;8.48;;;3.75;;
15142;SDS011;7672;50.834;6.286;2022-08-11T10:41:47;4.10;;;3.47;;
15142;SDS011;7672;50.834;6.286;2022-08-11T10:44:46;3.75;;;3.38;;
15142;SDS011;7672;50.834;6.286;2022-08-11T10:47:18;5.25;;;3.38;;
15142;SDS011;7672;50.834;6.286;2022-08-11T10:50:02;4.65;;;3.30;;
15142;SDS011;7672;50.834;6.286;2022-08-11T10:52:58;5.20;;;3.05;;
15142;SDS011;7672;50.834;6.286;2022-08-11T10:55:44;3.10;;;2.90;;
15142;SDS011;7672;50.834;6.286;2022-08-11T10:58:31;3.70;;;3.35;;
15142;SDS011;7672;50.834;6.286;2022-08-11T11:01:20;4.15;;;3.20;;
15142;SDS011;7672;50.834;6.286;2022-08-11T11:03:59;4.07;;;3.30;;
15142;SDS011;7672;50.834;6.286;2022-08-11T11:07:15;3.60;;;3.20;;
15142;SDS011;7672;50.834;6.286;2022-08-11T11:12:25;3.28;;;3.05;;
15142;SDS011;7672;50.834;6.286;2022-08-11T11:15:18;4.72;;;2.90;;
15142;SDS011;7672;50.834;6.286;2022-08-11T11:20:50;6.30;;;3.22;;
15142;SDS011;7672;50.834;6.286;2022-08-11T11:23:25;3.88;;;3.53;;
15142;SDS011;7672;50.834;6.286;2022-08-11T11:29:10;3.85;;;3.40;;
15142;SDS011;7672;50.834;6.286;2022-08-11T11:37:45;3.53;;;3.22;;
15142;SDS011;7672;50.834;6.286;2022-08-11T11:40:29;9.30;;;3.42;;
15142;SDS011;7672;50.834;6.286;2022-08-11T11:43:16;3.67;;;3.38;;
15142;SDS011;7672;50.834;6.286;2022-08-11T11:45:43;3.65;;;3.40;;
15142;SDS011;7672;50.834;6.286;2022-08-11T11:48:10;5.07;;;4.00;;
15142;SDS011;7672;50.834;6.286;2022-08-11T11:50:38;6.60;;;3.53;;
15142;SDS011;7672;50.834;6.286;2022-08-11T11:53:08;6.35;;;3.65;;
15142;SDS011;7672;50.834;6.286;2022-08-11T11:55:37;5.30;;;3.42;;
15142;SDS011;7672;50.834;6.286;2022-08-11T11:58:04;3.90;;;3.67;;
15142;SDS011;7672;50.834;6.286;2022-08-11T12:00:51;8.23;;;3.70;;
15142;SDS011;7672;50.834;6.286;2022-08-11T12:03:38;4.00;;;3.70;;
15142;SDS011;7672;50.834;6.286;2022-08-11T12:06:06;4.78;;;3.65;;
15142;SDS011;7672;50.834;6.286;2022-08-11T12:08:38;4.13;;;3.70;;
15142;SDS011;7672;50.834;6.286;2022-08-11T12:11:08;4.90;;;3.38;;
15142;SDS011;7672;50.834;6.286;2022-08-11T12:13:57;4.95;;;3.33;;
15142;SDS011;7672;50.834;6.286;2022-08-11T12:16:36;5.10;;;3.75;;
15142;SDS011;7672;50.834;6.286;2022-08-11T12:19:13;3.85;;;3.55;;
15142;SDS011;7672;50.834;6.286;2022-08-11T12:21:43;6.18;;;4.30;;
15142;SDS011;7672;50.834;6.286;2022-08-11T12:24:33;7.63;;;3.83;;
15142;SDS011;7672;50.834;6.286;2022-08-11T12:27:20;6.18;;;4.18;;
15142;SDS011;7672;50.834;6.286;2022-08-11T12:29:58;5.90;;;3.70;;
15142;SDS011;7672;50.834;6.286;2022-08-11T12:32:34;4.47;;;3.63;;
15142;SDS011;7672;50.834;6.286;2022-08-11T12:35:04;6.50;;;3.55;;
15142;SDS011;7672;50.834;6.286;2022-08-11T12:37:39;3.55;;;3.25;;
15142;SDS011;7672;50.834;6.286;2022-08-11T12:40:15;14.43;;;4.60;;
15142;SDS011;7672;50.834;6.286;2022-08-11T12:43:28;4.80;;;3.88;;
15142;SDS011;7672;50.834;6.286;2022-08-11T12:46:23;7.35;;;3.75;;
15142;SDS011;7672;50.834;6.286;2022-08-11T12:49:03;4.10;;;3.80;;
15142;SDS011;7672;50.834;6.286;2022-08-11T12:52:01;5.88;;;3.90;;
15142;SDS011;7672;50.834;6.286;2022-08-11T12:57:46;4.22;;;3.92;;
15142;SDS011;7672;50.834;6.286;2022-08-11T13:00:32;4.60;;;4.20;;
15142;SDS011;7672;50.834;6.286;2022-08-11T13:03:19;8.38;;;4.07;;
15142;SDS011;7672;50.834;6.286;2022-08-11T13:06:06;5.30;;;3.42;;
15142;SDS011;7672;50.834;6.286;2022-08-11T13:08:35;5.22;;;3.95;;
15142;SDS011;7672;50.834;6.286;2022-08-11T13:11:05;4.25;;;3.85;;
15142;SDS011;7672;50.834;6.286;2022-08-11T13:14:14;4.10;;;3.80;;
15142;SDS011;7672;50.834;6.286;2022-08-11T13:16:42;4.70;;;3.90;;
15142;SDS011;7672;50.834;6.286;2022-08-11T13:19:30;4.70;;;4.35;;
15142;SDS011;7672;50.834;6.286;2022-08-11T13:21:59;6.20;;;3.72;;
15142;SDS011;7672;50.834;6.286;2022-08-11T13:24:30;4.38;;;3.67;;
15142;SDS011;7672;50.834;6.286;2022-08-11T13:27:01;5.30;;;3.75;;
15142;SDS011;7672;50.834;6.286;2022-08-11T13:29:29;4.13;;;3.83;;
15142;SDS011;7672;50.834;6.286;2022-08-11T13:31:57;4.43;;;3.95;;
15142;SDS011;7672;50.834;6.286;2022-08-11T13:34:25;6.68;;;4.03;;
15142;SDS011;7672;50.834;6.286;2022-08-11T13:37:00;4.53;;;4.10;;
15142;SDS011;7672;50.834;6.286;2022-08-11T13:39:31;6.68;;;4.25;;
15142;SDS011;7672;50.834;6.286;2022-08-11T13:42:02;5.95;;;4.43;;
15142;SDS011;7672;50.834;6.286;2022-08-11T13:44:32;9.38;;;4.13;;
15142;SDS011;7672;50.834;6.286;2022-08-11T13:47:21;6.88;;;4.40;;
15142;SDS011;7672;50.834;6.286;2022-08-11T13:49:50;4.43;;;4.05;;
15142;SDS011;7672;50.834;6.286;2022-08-11T13:52:19;6.00;;;3.80;;
15142;SDS011;7672;50.834;6.286;2022-08-11T13:54:48;8.60;;;4.32;;
15142;SDS011;7672;50.834;6.286;2022-08-11T13:57:18;4.18;;;3.78;;
15142;SDS011;7672;50.834;6.286;2022-08-11T14:00:07;11.80;;;5.50;;
15142;SDS011;7672;50.834;6.286;2022-08-11T14:02:50;6.75;;;4.20;;
15142;SDS011;7672;50.834;6.286;2022-08-11T14:05:43;9.25;;;4.43;;
15142;SDS011;7672;50.834;6.286;2022-08-11T14:08:15;6.45;;;4.40;;
15142;SDS011;7672;50.834;6.286;2022-08-11T14:11:04;4.88;;;4.47;;
15142;SDS011;7672;50.834;6.286;2022-08-11T14:14:12;4.80;;;4.30;;
15142;SDS011;7672;50.834;6.286;2022-08-11T14:16:48;6.20;;;4.65;;
15142;SDS011;7672;50.834;6.286;2022-08-11T14:19:19;7.75;;;4.10;;
15142;SDS011;7672;50.834;6.286;2022-08-11T14:21:51;4.88;;;4.47;;
15142;SDS011;7672;50.834;6.286;2022-08-11T14:24:40;4.65;;;4.20;;
15142;SDS011;7672;50.834;6.286;2022-08-11T14:27:15;5.88;;;3.95;;
15142;SDS011;7672;50.834;6.286;2022-08-11T14:30:04;5.85;;;4.22;;
15142;SDS011;7672;50.834;6.286;2022-08-11T14:32:51;4.80;;;4.15;;
15142;SDS011;7672;50.834;6.286;2022-08-11T14:35:21;4.85;;;4.10;;
15142;SDS011;7672;50.834;6.286;2022-08-11T14:37:52;4.30;;;3.90;;
15142;SDS011;7672;50.834;6.286;2022-08-11T14:40:22;7.13;;;4.55;;
15142;SDS011;7672;50.834;6.286;2022-08-11T14:43:09;5.75;;;4.03;;
15142;SDS011;7672;50.834;6.286;2022-08-11T14:46:15;7.30;;;4.22;;
15142;SDS011;7672;50.834;6.286;2022-08-11T14:49:01;4.93;;;4.00;;
15142;SDS011;7672;50.834;6.286;2022-08-11T14:51:30;4.30;;;3.90;;
15142;SDS011;7672;50.834;6.286;2022-08-11T14:53:59;6.22;;;4.35;;
15142;SDS011;7672;50.834;6.286;2022-08-11T14:56:48;6.18;;;4.57;;
15142;SDS011;7672;50.834;6.286;2022-08-11T14:59:24;4.15;;;3.85;;
15142;SDS011;7672;50.834;6.286;2022-08-11T15:01:52;4.80;;;4.18;;
15142;SDS011;7672;50.834;6.286;2022-08-11T15:04:37;5.28;;;4.25;;
15142;SDS011;7672;50.834;6.286;2022-08-11T15:07:05;5.32;;;4.22;;
15142;SDS011;7672;50.834;6.286;2022-08-11T15:09:42;6.53;;;3.97;;
15142;SDS011;7672;50.834;6.286;2022-08-11T15:12:30;4.63;;;4.18;;
15142;SDS011;7672;50.834;6.286;2022-08-11T15:15:01;7.90;;;4.15;;
15142;SDS011;7672;50.834;6.286;2022-08-11T15:18:02;4.32;;;3.97;;
15142;SDS011;7672;50.834;6.286;2022-08-11T15:20:32;4.50;;;4.20;;
15142;SDS011;7672;50.834;6.286;2022-08-11T15:23:19;6.93;;;4.40;;
15142;SDS011;7672;50.834;6.286;2022-08-11T15:26:12;6.10;;;4.22;;
15142;SDS011;7672;50.834;6.286;2022-08-11T15:28:47;4.38;;;4.07;;
15142;SDS011;7672;50.834;6.286;2022-08-11T15:31:37;4.82;;;4.20;;
15142;SDS011;7672;50.834;6.286;2022-08-11T15:34:15;4.50;;;4.10;;
15142;SDS011;7672;50.834;6.286;2022-08-11T15:37:07;5.15;;;4.22;;
15142;SDS011;7672;50.834;6.286;2022-08-11T15:40:17;4.45;;;3.85;;
15142;SDS011;7672;50.834;6.286;2022-08-11T15:43:45;8.38;;;4.00;;
15142;SDS011;7672;50.834;6.286;2022-08-11T15:46:39;5.90;;;4.30;;
15142;SDS011;7672;50.834;6.286;2022-08-11T15:49:11;4.30;;;3.95;;
15142;SDS011;7672;50.834;6.286;2022-08-11T15:54:38;8.13;;;4.28;;
15142;SDS011;7672;50.834;6.286;2022-08-11T15:57:08;4.32;;;4.00;;
15142;SDS011;7672;50.834;6.286;2022-08-11T16:00:05;4.95;;;4.53;;
15142;SDS011;7672;50.834;6.286;2022-08-11T16:02:53;7.85;;;4.45;;
15142;SDS011;7672;50.834;6.286;2022-08-11T16:06:19;7.05;;;4.18;;
15142;SDS011;7672;50.834;6.286;2022-08-11T16:08:49;4.70;;;4.20;;
15142;SDS011;7672;50.834;6.286;2022-08-11T16:11:21;6.82;;;4.70;;
15142;SDS011;7672;50.834;6.286;2022-08-11T16:13:50;5.22;;;4.50;;
15142;SDS011;7672;50.834;6.286;2022-08-11T16:16:39;4.65;;;4.20;;
15142;SDS011;7672;50.834;6.286;2022-08-11T16:19:09;4.47;;;4.07;;
15142;SDS011;7672;50.834;6.286;2022-08-11T16:21:38;4.80;;;3.97;;
15142;SDS011;7672;50.834;6.286;2022-08-11T16:24:11;4.53;;;4.15;;
15142;SDS011;7672;50.834;6.286;2022-08-11T16:27:00;5.45;;;4.40;;
15142;SDS011;7672;50.834;6.286;2022-08-11T16:29:43;4.47;;;4.03;;
15142;SDS011;7672;50.834;6.286;2022-08-11T16:32:17;9.18;;;4.65;;
15142;SDS011;7672;50.834;6.286;2022-08-11T16:34:49;5.18;;;4.63;;
15142;SDS011;7672;50.834;6.286;2022-08-11T16:37:39;4.57;;;4.18;;
15142;SDS011;7672;50.834;6.286;2022-08-11T16:40:28;4.90;;;4.40;;
15142;SDS011;7672;50.834;6.286;2022-08-11T16:42:56;7.15;;;4.97;;
15142;SDS011;7672;50.834;6.286;2022-08-11T16:45:43;4.70;;;4.30;;
15142;SDS011;7672;50.834;6.286;2022-08-11T16:48:30;6.65;;;4.20;;
15142;SDS011;7672;50.834;6.286;2022-08-11T16:51:04;6.95;;;4.50;;
15142;SDS011;7672;50.834;6.286;2022-08-11T16:53:33;4.97;;;4.53;;
15142;SDS011;7672;50.834;6.286;2022-08-11T16:56:22;5.25;;;4.45;;
15142;SDS011;7672;50.834;6.286;2022-08-11T16:58:55;5.13;;;4.63;;
15142;SDS011;7672;50.834;6.286;2022-08-11T17:01:43;6.00;;;4.38;;
15142;SDS011;7672;50.834;6.286;2022-08-11T17:04:16;5.82;;;5.05;;
15142;SDS011;7672;50.834;6.286;2022-08-11T17:07:23;8.45;;;4.72;;
15142;SDS011;7672;50.834;6.286;2022-08-11T17:10:26;5.00;;;4.50;;
15142;SDS011;7672;50.834;6.286;2022-08-11T17:13:27;7.38;;;4.88;;
15142;SDS011;7672;50.834;6.286;2022-08-11T17:16:22;5.90;;;4.63;;
15142;SDS011;7672;50.834;6.286;2022-08-11T17:19:40;5.38;;;4.80;;
15142;SDS011;7672;50.834;6.286;2022-08-11T17:22:17;5.90;;;4.70;;
15142;SDS011;7672;50.834;6.286;2022-08-11T17:25:09;6.50;;;4.57;;
15142;SDS011;7672;50.834;6.286;2022-08-11T17:27:38;5.15;;;4.75;;
15142;SDS011;7672;50.834;6.286;2022-08-11T17:30:08;5.80;;;4.75;;
15142;SDS011;7672;50.834;6.286;2022-08-11T17:32:38;5.03;;;4.63;;
15142;SDS011;7672;50.834;6.286;2022-08-11T17:35:32;7.93;;;4.63;;
15142;SDS011;7672;50.834;6.286;2022-08-11T17:38:15;7.05;;;5.50;;
15142;SDS011;7672;50.834;6.286;2022-08-11T17:40:46;5.60;;;5.03;;
15142;SDS011;7672;50.834;6.286;2022-08-11T17:43:44;4.88;;;4.55;;
15142;SDS011;7672;50.834;6.286;2022-08-11T17:46:33;8.43;;;4.50;;
15142;SDS011;7672;50.834;6.286;2022-08-11T17:49:28;5.03;;;4.53;;
15142;SDS011;7672;50.834;6.286;2022-08-11T17:52:03;6.40;;;4.50;;
15142;SDS011;7672;50.834;6.286;2022-08-11T17:54:51;8.32;;;4.63;;
15142;SDS011;7672;50.834;6.286;2022-08-11T17:58:02;5.18;;;4.45;;
15142;SDS011;7672;50.834;6.286;2022-08-11T18:00:48;6.68;;;4.82;;
15142;SDS011;7672;50.834;6.286;2022-08-11T18:03:17;5.57;;;4.65;;
15142;SDS011;7672;50.834;6.286;2022-08-11T18:05:58;4.75;;;4.35;;
15142;SDS011;7672;50.834;6.286;2022-08-11T18:08:29;10.75;;;5.00;;
15142;SDS011;7672;50.834;6.286;2022-08-11T18:11:20;8.38;;;5.28;;
15142;SDS011;7672;50.834;6.286;2022-08-11T18:14:29;7.68;;;5.30;;
15142;SDS011;7672;50.834;6.286;2022-08-11T18:17:17;6.68;;;5.10;;
15142;SDS011;7672;50.834;6.286;2022-08-11T18:20:04;7.10;;;5.63;;
15142;SDS011;7672;50.834;6.286;2022-08-11T18:22:51;7.45;;;5.55;;
15142;SDS011;7672;50.834;6.286;2022-08-11T18:25:41;7.88;;;4.65;;
15142;SDS011;7672;50.834;6.286;2022-08-11T18:28:35;8.30;;;5.07;;
15142;SDS011;7672;50.834;6.286;2022-08-11T18:31:30;5.72;;;5.10;;
15142;SDS011;7672;50.834;6.286;2022-08-11T18:34:29;13.00;;;4.82;;
15142;SDS011;7672;50.834;6.286;2022-08-11T18:37:23;8.40;;;4.53;;
15142;SDS011;7672;50.834;6.286;2022-08-11T18:40:18;9.30;;;4.78;;
15142;SDS011;7672;50.834;6.286;2022-08-11T18:43:10;6.10;;;4.65;;
15142;SDS011;7672;50.834;6.286;2022-08-11T18:46:01;5.97;;;4.63;;
15142;SDS011;7672;50.834;6.286;2022-08-11T18:48:53;9.85;;;5.10;;
15142;SDS011;7672;50.834;6.286;2022-08-11T18:51:47;5.72;;;4.80;;
15142;SDS011;7672;50.834;6.286;2022-08-11T18:54:37;10.23;;;5.55;;
15142;SDS011;7672;50.834;6.286;2022-08-11T18:57:27;7.40;;;5.70;;
15142;SDS011;7672;50.834;6.286;2022-08-11T19:00:20;8.05;;;5.22;;
15142;SDS011;7672;50.834;6.286;2022-08-11T19:03:09;11.35;;;5.60;;
15142;SDS011;7672;50.834;6.286;2022-08-11T19:06:08;11.73;;;5.78;;
15142;SDS011;7672;50.834;6.286;2022-08-11T19:09:07;16.27;;;5.63;;
15142;SDS011;7672;50.834;6.286;2022-08-11T19:11:57;11.23;;;5.53;;
15142;SDS011;7672;50.834;6.286;2022-08-11T19:14:44;11.23;;;5.93;;
15142;SDS011;7672;50.834;6.286;2022-08-11T19:17:35;8.20;;;5.57;;
15142;SDS011;7672;50.834;6.286;2022-08-11T19:20:26;13.57;;;6.45;;
15142;SDS011;7672;50.834;6.286;2022-08-11T19:23:15;15.35;;;5.97;;
15142;SDS011;7672;50.834;6.286;2022-08-11T19:26:17;11.52;;;6.25;;
15142;SDS011;7672;50.834;6.286;2022-08-11T19:29:05;9.95;;;5.70;;
15142;SDS011;7672;50.834;6.286;2022-08-11T19:32:13;8.82;;;6.03;;
15142;SDS011;7672;50.834;6.286;2022-08-11T19:35:00;8.02;;;5.25;;
15142;SDS011;7672;50.834;6.286;2022-08-11T19:37:47;7.78;;;5.97;;
15142;SDS011;7672;50.834;6.286;2022-08-11T19:40:36;6.03;;;5.53;;
15142;SDS011;7672;50.834;6.286;2022-08-11T19:43:23;10.63;;;5.80;;
15142;SDS011;7672;50.834;6.286;2022-08-11T19:46:13;8.70;;;6.03;;
15142;SDS011;7672;50.834;6.286;2022-08-11T19:49:03;6.78;;;4.75;;
15142;SDS011;7672;50.834;6.286;2022-08-11T19:51:50;8.23;;;5.05;;
15142;SDS011;7672;50.834;6.286;2022-08-11T19:54:37;6.65;;;5.22;;
15142;SDS011;7672;50.834;6.286;2022-08-11T19:57:27;9.77;;;5.25;;
15142;SDS011;7672;50.834;6.286;2022-08-11T20:00:16;6.60;;;5.00;;
15142;SDS011;7672;50.834;6.286;2022-08-11T20:03:06;7.93;;;5.32;;
15142;SDS011;7672;50.834;6.286;2022-08-11T20:05:56;5.30;;;4.80;;